»·PEaware :: N235B L52-L88

N235B :: L52-L88

FLIGHT INFORMATION

Flight Status: Arrived
Operator: Privately registered:
United States
More flights under this callsign
Pilot: Jason D. (29273)
Aircraft: CESSNA 172 SKYHAWK
(C172)
More flights by this aircraft type
Origin: L52 Oceano Co
United States
Destination: L88 New Cuyama
United States
More flights between these airports :: More routes between these airports
Route: L52 WYNNR L88
File this flight plan on PilotEdge
Remarks:
Altitude:
(Current/Filed)
5,500ft
Speed:
(Current/Filed)
120kts
Departed: 26-Apr-20 07:30 PM
Arrived: 26-Apr-20 08:39 PM
Distance/Time
Traveled:
47nm/1:09
Distance/Time
To Go:
Arrived

Flight Plot

Page will automatically refresh every two minutes.


Map Options




Map Legend


Flown Route
Filed Route
Departure Airport
Arrival Airport
Navaid (VOR, NDB)
Fix

Horizontal Profiles

Position Reports

Time Latitude Longitude Heading Altitude Ground
Speed
26-Apr-20 19:19 35.103406 -120.624442 32 15ft 0kts
26-Apr-20 19:20 35.103406 -120.624442 32 15ft 0kts
26-Apr-20 19:21 35.103406 -120.624442 32 15ft 0kts
26-Apr-20 19:22 35.103444 -120.624395 52 15ft 0kts
26-Apr-20 19:23 35.102562 -120.623950 211 15ft 0kts
26-Apr-20 19:24 35.103478 -120.625162 222 14ft 0kts
26-Apr-20 19:25 35.103411 -120.625237 222 14ft 0kts
26-Apr-20 19:26 35.103136 -120.625252 120 14ft 0kts
26-Apr-20 19:27 35.103136 -120.625252 120 14ft 0kts
26-Apr-20 19:28 35.103136 -120.625252 120 14ft 0kts
26-Apr-20 19:29 35.094203 -120.610770 126 402ft 84kts
26-Apr-20 19:31 35.083723 -120.585707 116 1364ft 84kts
26-Apr-20 19:32 35.075755 -120.559145 74 2243ft 84kts
26-Apr-20 19:33 35.073711 -120.533063 112 3074ft 88kts
26-Apr-20 19:34 35.070910 -120.507073 126 3933ft 77kts
26-Apr-20 19:35 35.058097 -120.481877 116 4659ft 87kts
26-Apr-20 19:36 35.051245 -120.453356 98 5406ft 92kts
26-Apr-20 19:37 35.043501 -120.419576 106 5793ft 108kts
26-Apr-20 19:38 35.033227 -120.379368 107 5580ft 138kts
26-Apr-20 19:39 35.017528 -120.337358 119 5510ft 132kts
26-Apr-20 19:40 34.997842 -120.300757 127 5620ft 126kts
26-Apr-20 19:41 34.975710 -120.267253 135 5715ft 127kts
26-Apr-20 19:42 34.950597 -120.236457 135 5787ft 128kts
26-Apr-20 19:43 34.924008 -120.207583 145 5855ft 128kts
26-Apr-20 19:44 34.896157 -120.180216 129 5912ft 130kts
26-Apr-20 19:45 34.871883 -120.142211 126 5475ft 143kts
26-Apr-20 19:46 34.847758 -120.107723 136 5386ft 127kts
26-Apr-20 19:46 34.826619 -120.083684 143 5470ft 125kts
26-Apr-20 19:48 34.796541 -120.051367 116 5741ft 125kts
26-Apr-20 19:49 34.783153 -120.011149 115 5900ft 128kts
26-Apr-20 19:49 34.769712 -119.976002 116 5608ft 149kts
26-Apr-20 19:51 34.750251 -119.926362 117 5598ft 130kts
26-Apr-20 19:52 34.735418 -119.885289 119 5491ft 120kts
26-Apr-20 19:52 34.723624 -119.855370 122 5667ft 116kts
26-Apr-20 19:54 34.711599 -119.821884 8 6005ft 0kts
26-Apr-20 20:02 35.103406 -120.624442 32 15ft 0kts
26-Apr-20 20:03 35.103406 -120.624442 32 15ft 0kts
26-Apr-20 20:04 35.103459 -120.624386 17 15ft 0kts
26-Apr-20 20:05 35.103520 -120.625128 217 14ft 2kts
26-Apr-20 20:06 35.102697 -120.624425 122 15ft 40kts
26-Apr-20 20:07 35.090832 -120.604146 117 749ft 80kts
26-Apr-20 20:08 35.083968 -120.577545 101 1723ft 84kts
26-Apr-20 20:09 35.077707 -120.550327 112 2674ft 84kts
26-Apr-20 20:10 35.067988 -120.523909 118 3555ft 86kts
26-Apr-20 20:11 35.056201 -120.498295 118 4396ft 87kts
26-Apr-20 20:12 35.044398 -120.472338 118 5186ft 88kts
26-Apr-20 20:13 35.030610 -120.442483 120 5592ft 122kts
26-Apr-20 20:14 35.010547 -120.406458 127 5609ft 135kts
26-Apr-20 20:15 34.984837 -120.377499 146 5476ft 132kts
26-Apr-20 20:16 34.953241 -120.355499 157 5407ft 130kts
26-Apr-20 20:17 34.934668 -120.321025 102 5424ft 129kts
26-Apr-20 20:18 34.924043 -120.280169 115 5661ft 126kts
26-Apr-20 20:19 34.907873 -120.242743 111 5984ft 119kts
26-Apr-20 20:20 34.905080 -120.206717 13 6304ft 107kts
26-Apr-20 20:21 34.933270 -120.195955 16 6634ft 108kts
26-Apr-20 20:22 34.958707 -120.174594 21 6917ft 111kts
26-Apr-20 20:23 34.986962 -120.160498 13 7205ft 110kts
26-Apr-20 20:24 35.017900 -120.148336 14 7021ft 136kts
26-Apr-20 20:25 35.052446 -120.127082 28 6536ft 141kts
26-Apr-20 20:26 35.083840 -120.103253 32 5866ft 128kts
26-Apr-20 20:27 35.097713 -120.066242 107 5240ft 132kts
26-Apr-20 20:28 35.078696 -120.027470 132 4585ft 132kts
26-Apr-20 20:29 35.058685 -119.989409 116 3968ft 133kts
26-Apr-20 20:30 35.041607 -119.950415 119 3647ft 121kts
26-Apr-20 20:31 35.026910 -119.913730 116 3933ft 121kts
26-Apr-20 20:32 35.011929 -119.874956 115 3872ft 135kts
26-Apr-20 20:33 34.995536 -119.832493 118 3518ft 129kts
26-Apr-20 20:34 34.979754 -119.794748 116 3440ft 124kts
26-Apr-20 20:35 34.966455 -119.757361 107 3311ft 100kts
26-Apr-20 20:36 34.957832 -119.727581 116 2795ft 79kts
26-Apr-20 20:37 34.948816 -119.705515 128 2425ft 66kts
26-Apr-20 20:38 34.940365 -119.686662 115 2172ft 35kts
26-Apr-20 20:39 34.940872 -119.687845 293 2166ft 27kts
26-Apr-20 20:40 34.942689 -119.690176 21 2157ft 0kts
26-Apr-20 20:41 34.942767 -119.690146 13 2157ft 0kts
26-Apr-20 20:42 34.942767 -119.690146 13 2157ft 0kts
26-Apr-20 20:43 34.942767 -119.690146 13 2157ft 0kts
26-Apr-20 20:44 34.942767 -119.690146 13 2157ft 0kts
26-Apr-20 20:45 34.942767 -119.690146 13 2157ft 0kts
26-Apr-20 20:46 34.942767 -119.690146 13 2157ft 0kts
26-Apr-20 20:47 34.942767 -119.690146 13 2157ft 0kts
26-Apr-20 20:48 34.942767 -119.690146 13 2157ft 0kts
26-Apr-20 20:49 34.942767 -119.690146 13 2157ft 0kts
26-Apr-20 20:50 34.942767 -119.690146 13 2157ft 0kts
26-Apr-20 20:51 34.942767 -119.690146 13 2157ft 0kts
26-Apr-20 20:52 34.942767 -119.690146 13 2157ft 0kts
26-Apr-20 20:53 34.942767 -119.690146 13 2157ft 0kts

Navigation Log

Ident Type
Flight plan parsing failed, navigation log unavailable